createdAt,value
2022-10-26T04:02:00.881Z,86.41
2022-10-26T04:05:04.086Z,86.41
2022-10-26T04:08:06.133Z,87.03
2022-10-26T04:11:08.447Z,87.20
2022-10-26T04:14:10.467Z,85.94
2022-10-26T04:17:12.779Z,86.18
2022-10-26T04:20:15.464Z,86.89
2022-10-26T04:23:19.375Z,86.39
2022-10-26T04:26:21.461Z,86.85
2022-10-26T04:29:23.758Z,86.08
2022-10-26T04:32:26.678Z,86.01
2022-10-26T04:35:29.625Z,86.16
2022-10-26T04:38:31.665Z,85.46
2022-10-26T04:41:33.965Z,85.20
2022-10-26T04:44:35.977Z,86.18
2022-10-26T04:47:39.084Z,85.52
2022-10-26T04:50:41.429Z,86.58
2022-10-26T04:53:44.278Z,85.61
2022-10-26T04:59:53.501Z,85.27
2022-10-26T05:03:02.950Z,85.90
2022-10-26T05:06:05.412Z,85.85
2022-10-26T05:09:07.470Z,86.08
2022-10-26T05:12:09.780Z,86.33
2022-10-26T05:15:14.506Z,86.11
2022-10-26T05:18:16.916Z,86.31
2022-10-26T05:21:21.565Z,85.81
2022-10-26T05:24:23.875Z,85.07
2022-10-26T05:27:25.936Z,85.32
2022-10-26T05:30:29.338Z,86.17
2022-10-26T05:33:31.360Z,86.21
2022-10-26T05:36:33.674Z,85.99
2022-10-26T05:39:35.709Z,85.26
2022-10-26T05:42:37.986Z,85.72
2022-10-26T05:45:40.010Z,85.90
2022-10-26T05:48:42.428Z,86.38
2022-10-26T05:51:44.586Z,87.11
2022-10-26T05:54:46.968Z,86.98
2022-10-26T05:57:49.551Z,86.92
2022-10-26T06:01:07.893Z,87.50
2022-10-26T06:04:25.495Z,87.62
2022-10-26T06:07:27.910Z,88.62
2022-10-26T06:10:30.570Z,88.75
2022-10-26T06:13:32.980Z,89.23
2022-10-26T06:16:53.371Z,88.74
2022-10-26T06:20:08.639Z,88.92
2022-10-26T06:23:29.618Z,89.49
2022-10-26T06:26:56.304Z,89.70
2022-10-26T06:30:07.726Z,89.62
2022-10-26T06:33:24.928Z,90.53
2022-10-26T06:36:33.112Z,90.34
2022-10-26T06:39:42.419Z,89.90
2022-10-26T06:42:45.333Z,89.74
2022-10-26T06:45:51.195Z,89.56
2022-10-26T06:49:07.074Z,89.03
2022-10-26T06:52:19.427Z,87.52
2022-10-26T06:55:22.265Z,86.46
2022-10-26T06:58:28.971Z,86.06
2022-10-26T07:01:31.368Z,85.05
2022-10-26T07:04:34.245Z,85.44
2022-10-26T07:07:41.123Z,85.04
2022-10-26T07:10:43.578Z,84.31
2022-10-26T07:13:45.814Z,84.47
2022-10-26T07:16:47.854Z,84.49
2022-10-26T07:19:50.141Z,84.27
2022-10-26T07:22:56.663Z,84.77
2022-10-26T07:26:00.258Z,84.81
2022-10-26T07:29:02.331Z,84.96
2022-10-26T07:32:04.923Z,85.12
2022-10-26T07:35:07.690Z,86.45
2022-10-26T07:38:12.213Z,86.71
2022-10-26T07:41:14.305Z,87.64
2022-10-26T07:44:16.609Z,86.91
2022-10-26T07:47:30.472Z,86.11
2022-10-26T07:50:32.842Z,86.92
2022-10-26T07:53:34.897Z,87.25
2022-10-26T07:56:37.190Z,88.21
2022-10-26T07:59:39.410Z,87.56
2022-10-26T08:02:42.179Z,88.09
2022-10-26T08:05:51.211Z,87.13
2022-10-26T08:08:53.265Z,87.12
2022-10-26T08:11:55.542Z,86.49
2022-10-26T08:14:58.127Z,87.61
2022-10-26T08:18:00.652Z,88.70
2022-10-26T08:21:11.124Z,88.70
2022-10-26T08:24:14.160Z,88.47
2022-10-26T08:27:16.535Z,89.75
2022-10-26T08:30:18.892Z,89.71
2022-10-26T08:33:21.718Z,89.02
2022-10-26T08:36:26.248Z,89.02
2022-10-26T08:39:30.534Z,87.50
2022-10-26T08:42:36.957Z,88.38
2022-10-26T08:45:42.629Z,89.17
2022-10-26T08:48:54.366Z,87.71
2022-10-26T08:52:01.688Z,88.37
2022-10-26T08:55:09.029Z,88.14
2022-10-26T08:58:16.355Z,86.24
2022-10-26T09:01:19.095Z,86.41
2022-10-26T09:04:27.586Z,85.95
2022-10-26T09:07:57.050Z,85.75
2022-10-26T09:11:28.157Z,84.79
2022-10-26T09:15:08.682Z,86.54
2022-10-26T09:18:48.867Z,87.31
2022-10-26T09:22:18.650Z,86.35
2022-10-26T09:25:24.450Z,85.68
2022-10-26T09:28:31.819Z,85.18
2022-10-26T09:31:46.308Z,86.58
2022-10-26T09:34:52.748Z,86.83
2022-10-26T09:38:06.052Z,87.45
2022-10-26T09:41:08.260Z,87.29
2022-10-26T09:44:25.958Z,87.57
2022-10-26T09:47:52.836Z,88.31
2022-10-26T09:51:00.514Z,89.00
2022-10-26T09:54:14.964Z,87.88
2022-10-26T09:57:19.997Z,88.20
2022-10-26T10:00:25.993Z,88.53
2022-10-26T10:03:30.862Z,89.92
2022-10-26T10:06:32.884Z,91.25
2022-10-26T10:09:35.177Z,91.06
2022-10-26T10:12:37.210Z,89.56
2022-10-26T10:15:39.537Z,89.39
2022-10-26T10:18:42.702Z,89.99
2022-10-26T10:21:49.047Z,90.34
2022-10-26T10:24:59.495Z,90.28
2022-10-26T10:28:03.650Z,90.25
2022-10-26T10:31:28.121Z,91.43
2022-10-26T10:34:31.783Z,90.46
2022-10-26T10:37:44.245Z,89.77
2022-10-26T10:40:52.302Z,89.58
2022-10-26T10:44:02.674Z,89.61
2022-10-26T10:47:07.288Z,89.32
2022-10-26T10:50:20.555Z,89.91
2022-10-26T10:53:43.582Z,91.90
2022-10-26T10:56:51.149Z,92.64
2022-10-26T11:00:04.689Z,91.43
2022-10-26T11:03:32.654Z,90.97
2022-10-26T11:06:38.148Z,90.69
2022-10-26T11:09:43.567Z,90.99
2022-10-26T11:12:59.625Z,91.33
2022-10-26T11:16:05.814Z,91.99
2022-10-26T11:19:19.953Z,92.38
2022-10-26T11:22:27.908Z,91.74
2022-10-26T11:25:37.049Z,91.43
2022-10-26T11:29:01.130Z,90.16
2022-10-26T11:32:23.514Z,90.89
2022-10-26T11:35:35.494Z,90.24
2022-10-26T11:38:59.953Z,90.19
2022-10-26T11:42:18.584Z,89.78
2022-10-26T11:45:39.709Z,90.30
2022-10-26T11:49:04.773Z,90.54
2022-10-26T11:52:18.062Z,91.32
2022-10-26T11:55:22.662Z,90.60
2022-10-26T11:58:27.625Z,90.17
2022-10-26T12:01:31.544Z,89.90
2022-10-26T12:04:38.122Z,90.54
2022-10-26T12:07:41.994Z,91.35
2022-10-26T12:10:50.898Z,90.87
2022-10-26T12:14:07.257Z,92.48
2022-10-26T12:17:30.470Z,92.33
2022-10-26T12:21:04.529Z,92.34
2022-10-26T12:24:27.787Z,89.88
2022-10-26T12:27:44.024Z,89.16
2022-10-26T12:30:46.317Z,89.95
2022-10-26T12:33:51.652Z,90.34
2022-10-26T12:36:56.775Z,90.22
2022-10-26T12:40:32.916Z,89.99
2022-10-26T12:43:37.984Z,90.23
2022-10-26T12:46:41.570Z,89.90
2022-10-26T12:50:05.850Z,89.66
2022-10-26T12:53:17.505Z,89.86
2022-10-26T12:56:36.271Z,90.14
2022-10-26T13:00:00.969Z,90.17
2022-10-26T13:03:10.994Z,89.80
2022-10-26T13:06:38.475Z,89.28
2022-10-26T13:09:45.782Z,88.69
2022-10-26T13:12:50.221Z,87.94
2022-10-26T13:15:55.640Z,87.42
2022-10-26T13:18:59.281Z,86.49
2022-10-26T13:22:01.765Z,86.40
2022-10-26T13:25:06.261Z,87.36
2022-10-26T13:28:37.644Z,87.43
2022-10-26T13:31:41.441Z,87.08
2022-10-26T13:34:44.473Z,88.10
2022-10-26T13:37:49.207Z,87.86
2022-10-26T13:41:05.959Z,87.20
2022-10-26T13:44:18.325Z,86.70
2022-10-26T13:47:29.840Z,87.43
2022-10-26T13:54:15.963Z,89.18
2022-10-26T13:57:37.952Z,89.74
2022-10-26T14:00:40.503Z,90.32
2022-10-26T14:03:44.056Z,90.40
2022-10-26T14:06:51.517Z,90.67
2022-10-26T14:09:56.581Z,91.01
2022-10-26T14:13:00.146Z,91.70
2022-10-26T14:16:09.314Z,91.87
2022-10-26T14:19:19.631Z,92.19
2022-10-26T14:22:27.325Z,92.35
2022-10-26T14:25:41.976Z,92.19
2022-10-26T14:28:50.461Z,92.56
2022-10-26T14:31:54.797Z,93.67
2022-10-26T14:34:57.173Z,93.36
2022-10-26T14:38:15.541Z,92.42
2022-10-26T14:41:18.185Z,91.97
2022-10-26T14:44:23.317Z,91.06
2022-10-26T14:47:31.864Z,91.48
2022-10-26T14:50:36.143Z,91.36
2022-10-26T14:53:41.290Z,91.27
2022-10-26T14:56:44.210Z,91.47
2022-10-26T15:00:00.593Z,91.75
2022-10-26T15:03:02.783Z,92.00
2022-10-26T15:06:30.284Z,92.57
2022-10-26T15:09:42.974Z,92.60
2022-10-26T15:12:45.275Z,93.26
2022-10-26T15:15:49.912Z,92.48
2022-10-26T15:19:09.145Z,92.91
2022-10-26T15:22:22.260Z,93.49
2022-10-26T15:25:28.254Z,93.39
2022-10-26T15:28:31.690Z,93.43
2022-10-26T15:31:34.321Z,94.17
2022-10-26T15:34:36.385Z,94.90
2022-10-26T15:37:38.915Z,93.92
2022-10-26T15:40:44.439Z,93.56
2022-10-26T15:43:48.783Z,93.53
